Time;durP1;ratioP1;P1;durP2;ratioP2;P2;SDS_P1;SDS_P2;PMS_P1;PMS_P2;Temp;Humidity;BMP_temperature;BMP_pressure;BME280_temperature;BME280_humidity;BME280_pressure;Samples;Min_cycle;Max_cycle;Signal;HPM_P1;HPM_P2
2021/09/05 00:02:18;;;;;;;7.90;4.20;;;;;;;14.04;59.73;99561.23;234084;1199;138523;-68
2021/09/05 00:07:22;;;;;;;8.30;4.30;;;;;;;13.97;59.89;99564.23;233496;1199;138853;-63
2021/09/05 00:12:27;;;;;;;9.10;4.10;;;;;;;13.87;59.75;99562.05;233396;1199;138689;-66
2021/09/05 00:17:30;;;;;;;11.30;4.30;;;;;;;13.78;60.03;99563.86;234022;1198;138038;-63
2021/09/05 00:22:34;;;;;;;7.00;3.60;;;;;;;13.74;60.04;99566.29;234210;1198;140538;-66
2021/09/05 00:27:38;;;;;;;8.60;4.40;;;;;;;13.71;60.25;99569.84;233122;1198;138754;-63
2021/09/05 00:32:42;;;;;;;6.00;3.70;;;;;;;13.70;60.39;99566.19;233990;1199;138790;-65
2021/09/05 00:37:46;;;;;;;6.90;4.30;;;;;;;13.69;60.58;99566.61;233358;1199;138444;-65
2021/09/05 00:42:49;;;;;;;8.60;4.50;;;;;;;13.67;60.64;99569.77;233707;1199;139038;-67
2021/09/05 00:47:53;;;;;;;9.10;4.50;;;;;;;13.62;60.58;99571.56;233554;1198;139021;-67
2021/09/05 00:52:57;;;;;;;7.90;4.80;;;;;;;13.56;60.75;99572.99;233826;1199;138789;-68
2021/09/05 00:58:02;;;;;;;7.40;4.10;;;;;;;13.51;60.55;99577.10;233833;1199;139654;-65
2021/09/05 01:03:06;;;;;;;8.70;4.30;;;;;;;13.43;60.59;99579.38;234044;1200;138893;-64
2021/09/05 01:08:10;;;;;;;10.10;4.50;;;;;;;13.38;60.71;99582.58;233931;1200;138721;-62
2021/09/05 01:13:13;;;;;;;7.70;4.60;;;;;;;13.32;60.60;99583.69;234141;1198;138617;-65
2021/09/05 01:18:16;;;;;;;7.30;4.20;;;;;;;13.24;60.72;99586.66;234034;1198;138548;-63
2021/09/05 01:23:45;;;;;;;7.50;4.30;;;;;;;13.18;60.69;99590.59;233611;1199;139200;-64
2021/09/05 01:29:09;;;;;;;8.20;4.50;;;;;;;13.18;60.89;99592.38;233851;1198;139904;-63
2021/09/05 01:34:44;;;;;;;8.90;4.10;;;;;;;13.19;60.80;99591.76;233973;1198;138252;-66
2021/09/05 01:40:08;;;;;;;9.80;4.70;;;;;;;13.18;61.03;99597.52;233834;1200;138891;-65
2021/09/05 01:45:29;;;;;;;7.50;4.50;;;;;;;13.17;60.99;99596.90;233620;1200;138497;-61
2021/09/05 01:50:51;;;;;;;9.10;4.80;;;;;;;13.14;60.81;99601.40;234058;1199;138724;-66
2021/09/05 01:56:20;;;;;;;8.80;4.70;;;;;;;13.08;61.15;99602.66;233975;1200;139484;-63
2021/09/05 02:01:57;;;;;;;9.00;4.70;;;;;;;13.03;61.00;99605.09;234056;1199;138944;-62
2021/09/05 02:07:19;;;;;;;8.60;4.90;;;;;;;12.96;61.07;99606.74;233644;1198;138816;-63
2021/09/05 02:12:40;;;;;;;9.50;5.10;;;;;;;12.92;61.24;99611.33;234085;1199;138505;-66
2021/09/05 02:18:11;;;;;;;7.60;4.80;;;;;;;12.89;61.26;99610.60;234090;1198;138997;-64
2021/09/05 02:23:28;;;;;;;10.60;5.00;;;;;;;12.86;61.33;99617.57;233968;1198;138669;-65
2021/09/05 02:29:00;;;;;;;8.20;4.90;;;;;;;12.82;61.29;99619.23;234025;1198;139057;-65
2021/09/05 02:34:25;;;;;;;9.20;4.70;;;;;;;12.82;61.53;99626.88;234192;1198;139021;-66
2021/09/05 02:39:40;;;;;;;9.10;5.20;;;;;;;12.80;61.34;99626.27;233888;1199;139375;-64
2021/09/05 02:44:46;;;;;;;8.70;4.80;;;;;;;12.79;61.64;99625.30;234063;1200;138205;-63
2021/09/05 02:50:12;;;;;;;10.10;4.80;;;;;;;12.75;61.31;99626.26;233898;1200;138413;-65
2021/09/05 02:55:29;;;;;;;8.20;4.70;;;;;;;12.70;61.60;99623.73;233893;1201;138408;-63
2021/09/05 03:00:52;;;;;;;7.90;4.60;;;;;;;12.67;61.36;99624.47;234032;1198;139938;-66
2021/09/05 03:06:27;;;;;;;9.20;4.40;;;;;;;12.60;61.48;99625.42;234072;1198;139232;-66
2021/09/05 03:11:49;;;;;;;8.90;4.90;;;;;;;12.52;61.66;99622.99;234012;1200;138477;-64
2021/09/05 03:17:04;;;;;;;8.20;5.10;;;;;;;12.44;61.45;99625.31;234112;1198;138854;-66
2021/09/05 03:22:27;;;;;;;7.10;4.60;;;;;;;12.39;61.56;99631.09;234128;1201;139291;-65
2021/09/05 03:27:46;;;;;;;8.80;4.40;;;;;;;12.39;61.86;99635.17;234026;1199;139713;-65
2021/09/05 03:33:08;;;;;;;9.50;5.30;;;;;;;12.42;61.56;99638.55;233962;1198;138814;-64
2021/09/05 03:38:26;;;;;;;9.20;5.30;;;;;;;12.43;61.87;99641.02;233767;1201;138394;-64
2021/09/05 03:43:48;;;;;;;9.10;4.90;;;;;;;12.43;61.89;99646.34;234050;1201;138910;-63
2021/09/05 03:49:11;;;;;;;8.80;4.70;;;;;;;12.40;61.71;99648.50;233983;1201;138776;-67
2021/09/05 03:54:16;;;;;;;11.70;5.30;;;;;;;12.36;61.73;99647.66;233960;1201;138564;-67
2021/09/05 03:59:20;;;;;;;9.80;5.30;;;;;;;12.30;61.84;99651.20;234034;1199;141001;-66
2021/09/05 04:04:23;;;;;;;10.80;5.40;;;;;;;12.27;62.00;99656.22;234249;1198;138692;-62
2021/09/05 04:14:49;;;;;;;10.80;5.10;;;;;;;12.23;61.79;99666.61;233995;1201;138775;-64
2021/09/05 04:19:52;;;;;;;9.00;5.50;;;;;;;12.20;62.21;99667.29;233696;1200;138802;-67
2021/09/05 04:24:55;;;;;;;9.30;5.40;;;;;;;12.22;61.90;99679.44;233467;1198;140560;-65
2021/09/05 04:29:58;;;;;;;10.20;5.80;;;;;;;12.26;61.75;99682.59;234169;1198;138741;-64
2021/09/05 04:35:02;;;;;;;10.20;5.40;;;;;;;12.28;61.89;99683.55;234058;1198;138485;-65
2021/09/05 04:40:06;;;;;;;8.50;5.60;;;;;;;12.27;61.91;99686.08;234008;1198;139506;-67
2021/09/05 04:45:10;;;;;;;12.20;5.30;;;;;;;12.26;62.16;99694.67;234108;1198;138832;-66
2021/09/05 04:50:13;;;;;;;9.70;5.60;;;;;;;12.26;62.07;99700.19;234107;1199;139063;-64
2021/09/05 04:55:16;;;;;;;9.90;5.80;;;;;;;12.25;62.07;99705.23;233840;1199;138166;-67
2021/09/05 05:00:19;;;;;;;10.50;4.90;;;;;;;12.26;62.21;99708.92;234062;1201;138770;-66
2021/09/05 05:05:22;;;;;;;8.00;5.00;;;;;;;12.27;62.11;99714.39;233603;1199;138873;-67
2021/09/05 05:10:26;;;;;;;10.90;5.00;;;;;;;12.30;62.22;99719.38;234221;1198;138656;-66
2021/09/05 05:15:29;;;;;;;12.50;5.30;;;;;;;12.31;62.17;99722.31;233540;1201;138520;-69
2021/09/05 05:20:32;;;;;;;8.30;5.20;;;;;;;12.34;62.26;99730.55;234061;1199;138738;-66
2021/09/05 05:25:35;;;;;;;7.80;4.80;;;;;;;12.38;62.30;99736.13;234038;1198;138876;-65
2021/09/05 05:30:39;;;;;;;8.40;5.30;;;;;;;12.47;62.31;99745.22;233805;1199;139049;-65
2021/09/05 05:35:42;;;;;;;9.60;5.00;;;;;;;12.61;62.43;99748.36;233700;1201;140203;-63
2021/09/05 05:40:45;;;;;;;8.00;5.20;;;;;;;12.72;62.30;99752.69;233447;1195;139163;-68
2021/09/05 05:45:48;;;;;;;11.50;4.90;;;;;;;12.80;62.08;99759.15;234115;1199;138823;-68
2021/09/05 05:50:53;;;;;;;11.90;4.70;;;;;;;12.86;62.18;99761.47;234092;1198;139795;-65
2021/09/05 05:55:57;;;;;;;12.20;8.30;;;;;;;12.98;62.41;99771.38;233976;1199;138797;-65
2021/09/05 06:01:00;;;;;;;9.20;4.40;;;;;;;13.09;62.33;99771.84;233934;1200;139819;-67
2021/09/05 06:06:05;;;;;;;71.60;48.60;;;;;;;13.18;62.26;99774.29;234049;1198;138937;-66
2021/09/05 06:11:08;;;;;;;125.80;93.50;;;;;;;13.28;62.15;99775.02;233976;1198;138696;-65
2021/09/05 06:16:11;;;;;;;11.90;7.60;;;;;;;13.34;61.93;99782.27;234239;1198;139020;-64
2021/09/05 06:21:15;;;;;;;120.20;87.50;;;;;;;13.39;61.87;99789.08;233783;1201;139156;-63
2021/09/05 06:26:18;;;;;;;12.10;7.70;;;;;;;13.43;61.80;99792.17;234077;1195;139981;-66
2021/09/05 06:31:21;;;;;;;8.10;4.10;;;;;;;13.47;61.82;99791.45;233990;1199;139057;-68
2021/09/05 06:36:24;;;;;;;7.00;4.40;;;;;;;13.55;61.77;99792.58;234045;1198;139425;-67
2021/09/05 06:41:29;;;;;;;8.00;4.90;;;;;;;13.66;61.72;99792.96;233228;1199;139183;-67
2021/09/05 06:46:32;;;;;;;8.00;4.60;;;;;;;13.76;61.63;99793.91;234218;1198;140445;-67
2021/09/05 06:51:35;;;;;;;7.30;4.50;;;;;;;13.87;61.82;99801.20;234004;1198;138792;-64
2021/09/05 06:56:39;;;;;;;22.90;15.00;;;;;;;13.98;61.62;99806.59;233878;1198;139217;-65
2021/09/05 07:01:42;;;;;;;7.30;4.00;;;;;;;14.09;61.60;99811.63;233921;1199;138717;-65
2021/09/05 07:06:46;;;;;;;9.30;4.30;;;;;;;14.16;61.50;99816.90;233987;1198;138716;-65
2021/09/05 07:11:49;;;;;;;5.90;3.60;;;;;;;14.25;61.27;99822.19;234160;1198;139419;-65
2021/09/05 07:16:52;;;;;;;6.40;3.40;;;;;;;14.32;61.28;99835.48;234013;1199;140197;-67
2021/09/05 07:21:55;;;;;;;4.80;3.10;;;;;;;14.38;61.11;99842.23;234121;1201;139589;-65
2021/09/05 07:26:58;;;;;;;7.50;3.80;;;;;;;14.45;61.02;99844.08;233949;1200;138317;-63
2021/09/05 07:32:02;;;;;;;8.20;3.20;;;;;;;14.52;60.93;99848.49;234044;1198;138996;-64
2021/09/05 07:37:05;;;;;;;5.30;2.80;;;;;;;14.60;60.99;99849.36;233387;1198;139338;-64
2021/09/05 07:42:08;;;;;;;4.50;3.10;;;;;;;14.73;60.99;99857.33;234024;1198;141172;-64
2021/09/05 07:47:11;;;;;;;5.20;2.40;;;;;;;14.83;60.71;99858.95;234084;1198;139234;-63
2021/09/05 07:52:14;;;;;;;38.80;28.00;;;;;;;14.96;60.37;99863.27;233971;1199;139074;-62
2021/09/05 07:57:17;;;;;;;15.40;8.20;;;;;;;15.35;62.46;99866.48;234060;1198;138668;-61
2021/09/05 08:02:22;;;;;;;8.80;5.90;;;;;;;16.07;62.57;99869.92;233795;1199;140182;-65
2021/09/05 08:07:26;;;;;;;4.30;2.70;;;;;;;16.51;61.39;99876.60;233783;1198;139650;-61
2021/09/05 08:12:29;;;;;;;8.70;4.20;;;;;;;16.73;60.12;99879.48;234094;1198;138549;-61
2021/09/05 08:17:32;;;;;;;4.60;2.40;;;;;;;16.92;60.00;99882.53;233496;1201;138697;-62
2021/09/05 08:22:36;;;;;;;9.60;2.70;;;;;;;17.09;59.70;99884.14;233331;1200;138729;-62
2021/09/05 08:27:39;;;;;;;4.70;2.20;;;;;;;17.28;59.38;99885.70;234059;1198;138953;-63
2021/09/05 08:32:42;;;;;;;70.60;44.00;;;;;;;17.31;58.77;99885.13;234033;1198;138880;-62
2021/09/05 08:37:47;;;;;;;5.50;3.00;;;;;;;17.42;58.88;99890.02;233841;1198;139169;-62
2021/09/05 08:42:52;;;;;;;16.80;10.30;;;;;;;17.45;57.89;99888.21;234043;1198;138867;-63
2021/09/05 08:47:56;;;;;;;14.00;10.30;;;;;;;17.42;58.04;99887.15;233982;1200;139140;-62
2021/09/05 08:53:01;;;;;;;21.50;14.70;;;;;;;17.42;57.58;99895.84;232610;1201;139295;-61
2021/09/05 08:58:04;;;;;;;14.40;8.50;;;;;;;17.47;58.23;99897.91;234117;1198;140410;-62
2021/09/05 09:03:08;;;;;;;22.10;12.90;;;;;;;17.65;58.83;99896.15;233920;1199;138774;-61
2021/09/05 09:08:13;;;;;;;55.50;34.90;;;;;;;17.80;58.34;99897.71;233512;1199;139748;-65
2021/09/05 09:13:23;;;;;;;;;;;;;;;17.95;58.23;99899.97;234054;1199;139366;-63
2021/09/05 09:18:29;;;;;;;13.40;5.90;;;;;;;18.02;57.07;99906.63;233836;1198;126001;-62
2021/09/05 09:23:34;;;;;;;28.40;16.70;;;;;;;17.96;56.41;99902.22;233944;1200;138267;-62
2021/09/05 09:28:39;;;;;;;5.90;2.90;;;;;;;17.93;56.65;99901.88;234106;1199;139629;-62
2021/09/05 09:33:46;;;;;;;5.20;3.20;;;;;;;18.01;56.32;99904.16;234108;1196;139558;-61
2021/09/05 09:39:01;;;;;;;18.80;4.70;;;;;;;18.09;56.58;99903.71;233872;1199;138869;-62
2021/09/05 09:44:11;;;;;;;4.30;2.80;;;;;;;18.25;57.11;99897.90;234026;1199;139789;-62
2021/09/05 09:49:14;;;;;;;12.70;4.20;;;;;;;18.39;56.60;99894.80;234042;1198;138452;-64
2021/09/05 09:54:18;;;;;;;7.00;2.90;;;;;;;18.52;56.68;99899.55;234043;1198;139324;-64
2021/09/05 09:59:21;;;;;;;15.80;10.40;;;;;;;18.63;56.23;99896.98;233936;1198;138616;-64
2021/09/05 10:04:31;;;;;;;17.00;11.40;;;;;;;18.71;55.69;99892.95;234042;1201;139044;-63
2021/09/05 10:09:36;;;;;;;17.60;8.70;;;;;;;18.77;54.84;99891.41;233880;1200;138837;-65
2021/09/05 10:14:40;;;;;;;14.00;5.80;;;;;;;18.74;54.44;99894.67;233875;1200;138599;-62
2021/09/05 10:19:44;;;;;;;11.70;4.40;;;;;;;18.80;54.73;99896.73;233694;1198;138430;-62
2021/09/05 10:24:49;;;;;;;9.70;4.90;;;;;;;18.91;54.60;99899.23;234048;1198;139118;-61
2021/09/05 10:30:08;;;;;;;3.80;2.20;;;;;;;19.04;54.36;99892.04;233676;1199;138851;-63
2021/09/05 10:35:25;;;;;;;5.60;2.60;;;;;;;19.16;53.81;99894.79;233686;1200;138319;-62
2021/09/05 10:40:49;;;;;;;12.50;3.70;;;;;;;19.26;53.88;99895.73;234169;1198;139130;-63
2021/09/05 10:45:55;;;;;;;34.60;28.80;;;;;;;19.38;54.38;99894.54;234092;1198;139805;-64
2021/09/05 10:51:11;;;;;;;14.90;3.10;;;;;;;19.42;53.68;99892.23;233917;1200;139489;-63
2021/09/05 10:56:16;;;;;;;8.30;2.00;;;;;;;19.42;53.12;99894.26;233733;1200;139220;-63
2021/09/05 11:01:30;;;;;;;8.70;2.30;;;;;;;19.38;52.70;99893.85;234077;1199;138820;-63
2021/09/05 11:06:41;;;;;;;6.40;1.70;;;;;;;19.36;52.70;99895.44;234059;1199;138745;-62
2021/09/05 11:12:07;;;;;;;7.90;2.20;;;;;;;19.45;53.40;99898.66;233630;1199;139151;-65
2021/09/05 11:17:21;;;;;;;11.10;3.90;;;;;;;19.58;53.12;99897.52;233937;1198;140254;-62
2021/09/05 11:22:35;;;;;;;15.00;3.90;;;;;;;19.64;53.06;99894.18;233954;1199;139432;-61
2021/09/05 11:28:01;;;;;;;21.60;6.80;;;;;;;19.66;52.28;99894.70;233087;1199;138616;-67
2021/09/05 11:33:14;;;;;;;2.80;1.10;;;;;;;19.61;51.99;99893.48;233237;1200;139752;-61
2021/09/05 11:38:18;;;;;;;19.30;7.10;;;;;;;19.59;51.63;99901.04;233958;1200;138985;-63
2021/09/05 11:43:38;;;;;;;10.10;3.10;;;;;;;19.63;51.81;99888.42;233776;1200;138409;-63
2021/09/05 11:49:00;;;;;;;26.60;7.70;;;;;;;19.68;51.22;99886.48;233936;1200;139114;-62
2021/09/05 11:54:10;;;;;;;7.40;3.00;;;;;;;19.78;51.21;99884.73;233952;1199;139335;-61
2021/09/05 11:59:14;;;;;;;6.40;1.90;;;;;;;19.90;50.75;99884.56;233990;1198;138500;-63
2021/09/05 12:04:17;;;;;;;4.60;1.60;;;;;;;20.08;50.57;99879.12;234072;1199;138249;-62
2021/09/05 12:09:30;;;;;;;4.90;1.30;;;;;;;20.25;50.19;99877.83;233645;1199;139053;-64
2021/09/05 12:14:35;;;;;;;2.20;1.20;;;;;;;20.43;50.08;99877.14;233786;1198;139338;-62
2021/09/05 12:20:01;;;;;;;6.90;4.50;;;;;;;20.55;49.61;99876.30;234058;1198;139559;-64
2021/09/05 12:25:14;;;;;;;2.10;1.30;;;;;;;20.69;49.38;99871.23;233865;1200;138606;-62
2021/09/05 12:30:28;;;;;;;1.80;1.10;;;;;;;20.87;49.16;99876.59;233944;1200;139232;-64
2021/09/05 12:35:33;;;;;;;2.40;1.30;;;;;;;21.05;48.74;99879.12;232581;1199;1402916;-65
2021/09/05 12:40:39;;;;;;;1.50;1.20;;;;;;;21.11;48.17;99877.80;233383;1199;138692;-62
2021/09/05 12:45:54;;;;;;;1.30;0.90;;;;;;;21.27;48.01;99874.56;233862;1198;138446;-64
2021/09/05 12:51:00;;;;;;;2.20;0.90;;;;;;;21.45;47.88;99876.34;234109;1198;139597;-64
2021/09/05 12:56:05;;;;;;;45.80;31.00;;;;;;;21.60;47.49;99865.85;234052;1199;139090;-62
2021/09/05 13:01:20;;;;;;;2.70;1.80;;;;;;;21.70;47.14;99867.27;233481;1199;138890;-65
2021/09/05 13:06:25;;;;;;;1.60;1.30;;;;;;;21.72;46.47;99863.81;234019;1199;139126;-62
2021/09/05 13:11:31;;;;;;;2.60;1.20;;;;;;;21.83;46.55;99862.41;233929;1199;141261;-65
2021/09/05 13:16:34;;;;;;;2.30;1.20;;;;;;;21.97;46.19;99864.33;233494;1200;138625;-63
2021/09/05 13:21:38;;;;;;;3.70;1.40;;;;;;;22.01;45.94;99869.54;233634;1200;138871;-65
2021/09/05 13:26:41;;;;;;;2.60;1.20;;;;;;;22.14;45.80;99866.25;234034;1198;138328;-62
2021/09/05 13:31:48;;;;;;;21.70;14.70;;;;;;;22.19;45.42;99869.04;233950;1198;138362;-64
2021/09/05 13:36:57;;;;;;;4.60;2.70;;;;;;;22.28;45.38;99869.34;233962;1199;139334;-76
2021/09/05 13:42:05;;;;;;;2.50;1.30;;;;;;;22.42;45.03;99873.65;233922;1200;138515;-62
2021/09/05 13:47:14;;;;;;;1.40;1.10;;;;;;;22.49;44.62;99870.70;233730;1199;138696;-62
2021/09/05 13:52:22;;;;;;;4.10;1.20;;;;;;;22.57;44.39;99874.73;234074;1199;140226;-63
2021/09/05 13:57:25;;;;;;;16.60;7.30;;;;;;;22.68;44.22;99871.14;234022;1198;138808;-63
2021/09/05 14:02:29;;;;;;;46.90;21.50;;;;;;;22.71;43.90;99869.60;234047;1198;139082;-61
2021/09/05 14:07:34;;;;;;;14.80;6.50;;;;;;;22.57;43.55;99864.98;233996;1199;138955;-63
2021/09/05 14:12:39;;;;;;;3.40;1.70;;;;;;;22.20;43.14;99873.18;233927;1201;139182;-62
2021/09/05 14:17:43;;;;;;;252.90;151.70;;;;;;;21.70;43.03;99877.22;233991;1198;139612;-64
2021/09/05 14:22:47;;;;;;;40.10;30.20;;;;;;;21.30;43.04;99880.44;234141;1198;139046;-62
2021/09/05 14:27:58;;;;;;;8.50;5.90;;;;;;;20.97;43.17;99877.30;233915;1201;139768;-61
2021/09/05 15:14:55;;;;;;;11.60;7.80;;;;;;;19.56;44.18;99867.08;233928;1200;139017;-61
2021/09/05 15:19:58;;;;;;;6.40;3.90;;;;;;;19.50;44.23;99872.61;233738;1199;138488;-63
2021/09/05 15:25:05;;;;;;;6.30;3.60;;;;;;;19.45;44.24;99869.13;233861;1199;139324;-63
2021/09/05 15:56:54;;;;;;;2.70;1.50;;;;;;;19.25;45.00;99867.05;233950;1199;138402;-60
2021/09/05 16:02:14;;;;;;;2.20;1.50;;;;;;;19.21;44.92;99869.95;233990;1195;138810;-60
2021/09/05 16:18:04;;;;;;;5.40;1.50;;;;;;;19.14;45.18;99875.14;233892;1201;138723;-61
2021/09/05 16:23:08;;;;;;;2.40;1.30;;;;;;;19.09;45.30;99868.38;234032;1199;138468;-61
2021/09/05 16:28:11;;;;;;;2.70;1.40;;;;;;;19.07;45.48;99869.31;233927;1200;139481;-62
2021/09/05 16:33:20;;;;;;;2.90;1.70;;;;;;;18.98;45.45;99868.27;234013;1201;139258;-62
2021/09/05 16:44:04;;;;;;;21.00;14.40;;;;;;;18.91;45.79;99877.41;233701;1201;139157;-62
2021/09/05 16:49:08;;;;;;;20.20;12.40;;;;;;;18.84;45.77;99872.30;233589;1201;139559;-62
2021/09/05 16:54:11;;;;;;;4.10;3.00;;;;;;;18.77;45.88;99874.00;233956;1200;139471;-62
2021/09/05 16:59:15;;;;;;;5.10;3.10;;;;;;;18.67;45.81;99877.41;233899;1199;138996;-62
2021/09/05 17:04:19;;;;;;;5.10;2.90;;;;;;;18.49;45.95;99876.73;234134;1201;138883;-63
2021/09/05 17:09:23;;;;;;;4.10;2.10;;;;;;;18.30;46.17;99885.30;233789;1200;138518;-63
2021/09/05 17:14:27;;;;;;;5.50;1.90;;;;;;;18.10;46.33;99889.41;233841;1199;138237;-62
2021/09/05 17:19:31;;;;;;;4.40;1.90;;;;;;;17.92;46.78;99895.69;233552;1201;139041;-63
2021/09/05 17:24:34;;;;;;;7.10;2.30;;;;;;;17.83;47.30;99898.25;233949;1201;138535;-61
2021/09/05 17:29:37;;;;;;;118.60;91.70;;;;;;;17.87;47.92;99898.95;234047;1199;138792;-62
2021/09/05 17:34:41;;;;;;;28.70;19.70;;;;;;;17.90;48.00;99906.48;233975;1198;140705;-67
2021/09/05 17:39:45;;;;;;;5.10;3.10;;;;;;;17.77;47.77;99911.91;234025;1200;138699;-62
2021/09/05 17:44:49;;;;;;;4.60;2.80;;;;;;;17.52;47.45;99919.64;234030;1200;139094;-62
2021/09/05 17:49:55;;;;;;;4.50;2.30;;;;;;;17.27;47.72;99922.23;234038;1200;138626;-63
2021/09/05 17:54:58;;;;;;;5.80;2.60;;;;;;;17.09;48.17;99925.73;234023;1201;139401;-62
2021/09/05 18:00:03;;;;;;;4.50;2.60;;;;;;;16.92;48.47;99933.61;234216;1201;138772;-62
2021/09/05 18:05:16;;;;;;;13.20;6.40;;;;;;;16.71;48.69;99935.17;234117;1198;138882;-62
2021/09/05 18:10:20;;;;;;;7.80;2.80;;;;;;;16.58;49.17;99934.68;234115;1198;139075;-62
2021/09/05 18:15:25;;;;;;;5.00;2.70;;;;;;;16.45;49.32;99942.59;233651;1200;138525;-62
2021/09/05 18:20:29;;;;;;;5.90;3.60;;;;;;;16.27;49.28;99945.44;233641;1201;138558;-63
2021/09/05 18:25:32;;;;;;;224.60;161.30;;;;;;;16.17;49.99;99952.80;233965;1200;139171;-63
2021/09/05 18:30:39;;;;;;;11.60;8.60;;;;;;;16.36;50.92;99953.63;233988;1201;139444;-64
2021/09/05 18:35:44;;;;;;;9.60;5.80;;;;;;;16.28;50.16;99958.83;234066;1200;138584;-62
2021/09/05 18:40:49;;;;;;;6.60;3.50;;;;;;;16.02;50.00;99963.35;234088;1201;139090;-61
2021/09/05 18:45:55;;;;;;;5.80;2.70;;;;;;;15.78;50.14;99967.73;234052;1199;139276;-61
2021/09/05 18:50:59;;;;;;;4.70;2.50;;;;;;;15.56;50.36;99965.91;233811;1199;138468;-63
2021/09/05 18:56:03;;;;;;;7.50;3.50;;;;;;;15.38;50.53;99969.34;234005;1199;139806;-63
2021/09/05 19:01:07;;;;;;;3.90;2.80;;;;;;;15.23;51.09;99965.15;233966;1198;138623;-62
2021/09/05 19:06:12;;;;;;;;;;;;;;;15.11;51.15;99962.02;234009;1201;140254;-65
2021/09/05 19:11:15;;;;;;;5.90;2.70;;;;;;;14.95;51.25;99968.77;234148;1200;125554;-60
2021/09/05 19:16:20;;;;;;;4.60;3.10;;;;;;;14.83;51.66;99965.80;234017;1200;139221;-60
2021/09/05 19:21:26;;;;;;;6.50;3.40;;;;;;;14.74;51.75;99965.83;234022;1199;139176;-62
2021/09/05 19:26:32;;;;;;;5.90;3.30;;;;;;;14.66;51.91;99960.29;234086;1199;139041;-59
2021/09/05 19:31:35;;;;;;;5.70;2.90;;;;;;;14.57;52.12;99968.16;234011;1199;139152;-60
2021/09/05 19:36:38;;;;;;;8.30;2.90;;;;;;;14.46;52.21;99969.37;233960;1200;139066;-61
2021/09/05 19:41:43;;;;;;;5.40;3.20;;;;;;;14.35;52.46;99974.71;233953;1198;138455;-62
2021/09/05 19:46:46;;;;;;;5.50;3.40;;;;;;;14.25;52.57;99976.92;234219;1198;138581;-61
2021/09/05 19:51:52;;;;;;;7.00;2.80;;;;;;;14.17;52.84;99978.13;233976;1198;138903;-64
2021/09/05 19:56:56;;;;;;;7.10;3.40;;;;;;;14.10;52.93;99975.54;233753;1201;139390;-63
2021/09/05 20:02:00;;;;;;;7.00;3.10;;;;;;;14.05;53.05;99976.05;234059;1199;138938;-63
2021/09/05 20:07:05;;;;;;;7.40;3.80;;;;;;;13.99;53.47;99979.08;234087;1199;139412;-64
2021/09/05 20:12:08;;;;;;;6.50;3.50;;;;;;;13.93;53.49;99983.37;234052;1198;139015;-63
2021/09/05 20:17:11;;;;;;;6.20;3.60;;;;;;;13.85;53.66;99984.71;233997;1200;138353;-64
2021/09/05 20:22:16;;;;;;;5.70;3.20;;;;;;;13.79;53.85;99990.98;234046;1198;140385;-62
2021/09/05 20:27:19;;;;;;;6.10;3.40;;;;;;;13.74;54.13;99990.42;234087;1198;138622;-64
2021/09/05 20:32:22;;;;;;;8.30;3.20;;;;;;;13.67;54.23;99990.60;234098;1198;139088;-62
2021/09/05 20:37:25;;;;;;;4.90;3.10;;;;;;;13.60;54.50;99990.50;233920;1199;138896;-62
2021/09/05 20:42:28;;;;;;;6.10;3.30;;;;;;;13.54;54.43;99993.23;233886;1198;138773;-63
2021/09/05 20:47:31;;;;;;;6.50;3.50;;;;;;;13.47;54.72;99992.54;234134;1198;139223;-63
2021/09/05 20:52:36;;;;;;;6.00;3.50;;;;;;;13.42;54.75;99995.83;234144;1198;139231;-62
2021/09/05 20:57:40;;;;;;;8.30;3.70;;;;;;;13.37;55.06;99992.58;234071;1200;139101;-62
2021/09/05 21:02:43;;;;;;;6.50;3.40;;;;;;;13.32;55.16;99995.59;234093;1198;138729;-65
2021/09/05 21:07:46;;;;;;;6.80;3.50;;;;;;;13.27;55.41;99989.45;234101;1198;138645;-63
2021/09/05 21:12:49;;;;;;;5.40;3.90;;;;;;;13.22;55.68;99993.61;233750;1199;138532;-66
2021/09/05 21:17:52;;;;;;;6.50;3.20;;;;;;;13.16;55.75;99992.14;233980;1201;139008;-64
2021/09/05 21:22:55;;;;;;;7.40;3.30;;;;;;;13.10;55.98;99992.00;233792;1199;139214;-62
2021/09/05 21:27:59;;;;;;;7.40;3.10;;;;;;;13.02;56.09;99993.27;234104;1198;138853;-64
2021/09/05 21:33:02;;;;;;;7.70;3.30;;;;;;;12.95;56.26;99992.64;234062;1199;139641;-66
2021/09/05 21:38:05;;;;;;;8.40;3.80;;;;;;;12.87;56.22;99990.75;233882;1199;139037;-62
2021/09/05 21:43:08;;;;;;;6.20;3.10;;;;;;;12.82;56.35;99992.48;234004;1198;140545;-67
2021/09/05 21:48:12;;;;;;;5.70;3.40;;;;;;;12.77;56.58;99995.61;233433;1199;139080;-63
2021/09/05 21:53:15;;;;;;;5.00;3.10;;;;;;;12.70;56.55;99998.12;234203;1198;138661;-63
2021/09/05 21:58:18;;;;;;;5.90;3.50;;;;;;;12.66;56.91;100005.13;234083;1198;138726;-62
2021/09/05 22:03:21;;;;;;;5.20;2.60;;;;;;;12.61;57.30;100005.02;233339;1198;139709;-63
2021/09/05 22:08:24;;;;;;;4.50;2.90;;;;;;;12.61;57.22;100014.13;234050;1199;139925;-65
2021/09/05 22:13:27;;;;;;;6.40;3.20;;;;;;;12.63;57.55;100011.16;233990;1199;139791;-64
2021/09/05 22:18:30;;;;;;;6.70;3.60;;;;;;;12.68;57.54;100015.67;234091;1198;138874;-64
2021/09/05 22:23:34;;;;;;;6.80;3.30;;;;;;;12.67;57.71;100007.73;233932;1198;138550;-65
2021/09/05 22:28:38;;;;;;;5.00;2.90;;;;;;;12.64;57.55;100006.13;234210;1199;138902;-65
2021/09/05 22:33:42;;;;;;;6.40;2.60;;;;;;;12.57;57.64;100004.02;233267;1200;140162;-62
2021/09/05 22:38:46;;;;;;;5.10;3.30;;;;;;;12.50;57.66;100005.61;232523;1200;139758;-64
2021/09/05 22:43:49;;;;;;;5.40;3.00;;;;;;;12.45;57.81;100010.38;233720;1199;138838;-62
2021/09/05 22:48:52;;;;;;;5.80;2.50;;;;;;;12.39;57.91;100011.95;234110;1199;139840;-64
2021/09/05 22:53:56;;;;;;;6.40;2.80;;;;;;;12.31;58.04;100009.13;234035;1199;139311;-63
2021/09/05 22:59:00;;;;;;;5.20;3.00;;;;;;;12.26;58.15;100008.71;234133;1199;139202;-62
2021/09/05 23:04:04;;;;;;;5.00;3.00;;;;;;;12.21;58.28;100004.56;234112;1198;140175;-62
2021/09/05 23:09:07;;;;;;;5.30;3.10;;;;;;;12.17;58.62;100007.42;234104;1199;138521;-68
2021/09/05 23:14:10;;;;;;;5.10;2.70;;;;;;;12.12;58.39;100008.37;233947;1200;138874;-65
2021/09/05 23:19:13;;;;;;;6.00;3.10;;;;;;;12.06;58.71;100005.83;234114;1199;139112;-62
2021/09/05 23:24:16;;;;;;;5.20;3.20;;;;;;;12.01;58.77;100003.11;233298;1198;139702;-66
2021/09/05 23:29:19;;;;;;;5.00;2.90;;;;;;;12.00;59.02;99998.72;234097;1198;140508;-64
2021/09/05 23:34:22;;;;;;;5.60;3.20;;;;;;;12.02;58.97;99990.79;233951;1198;139343;-66
2021/09/05 23:39:25;;;;;;;5.60;2.90;;;;;;;12.04;59.15;99991.20;233953;1199;138834;-64
2021/09/05 23:44:28;;;;;;;4.40;3.00;;;;;;;12.05;59.40;99989.71;234044;1199;138896;-64
2021/09/05 23:49:32;;;;;;;7.30;3.40;;;;;;;12.05;59.00;99985.27;234171;1198;138662;-66
2021/09/05 23:54:35;;;;;;;5.00;3.30;;;;;;;12.04;59.31;99982.45;234114;1198;139053;-63
2021/09/05 23:59:39;;;;;;;5.00;3.40;;;;;;;12.01;59.51;99982.80;234101;1198;138774;-61
